Time;durP1;ratioP1;P1;durP2;ratioP2;P2;SDS_P1;SDS_P2;PMS_P1;PMS_P2;Temp;Humidity;BMP_temperature;BMP_pressure;BME280_temperature;BME280_humidity;BME280_pressure;Samples;Min_cycle;Max_cycle;Signal;HPM_P1;HPM_P2
2021/03/09 00:00:15;;;;;;;114.50;44.23;;;;;;;0.83;55.56;100817.19;4874918;28;97643;-80
2021/03/09 00:02:41;;;;;;;106.07;43.40;;;;;;;0.75;55.35;100816.22;4860481;28;98013;-76
2021/03/09 00:05:07;;;;;;;117.30;48.00;;;;;;;0.86;55.16;100816.38;4860593;28;97025;-76
2021/03/09 00:07:33;;;;;;;120.83;46.67;;;;;;;0.68;55.49;100817.00;4860127;28;97260;-75
2021/03/09 00:09:58;;;;;;;116.20;44.70;;;;;;;0.69;55.86;100816.13;4859813;28;100900;-75
2021/03/09 00:12:24;;;;;;;107.60;45.60;;;;;;;0.69;55.89;100816.13;4862541;28;101281;-75
2021/03/09 00:14:50;;;;;;;116.57;47.37;;;;;;;0.68;55.99;100819.56;4879134;28;97136;-75
2021/03/09 00:17:15;;;;;;;120.37;47.73;;;;;;;0.73;55.10;100819.63;4870443;28;97473;-82
2021/03/09 00:19:41;;;;;;;121.17;47.50;;;;;;;0.65;55.69;100825.56;4859713;28;97889;-76
2021/03/09 00:22:06;;;;;;;113.33;47.90;;;;;;;0.57;56.02;100816.81;4859986;28;101683;-78
2021/03/09 00:24:32;;;;;;;117.73;45.80;;;;;;;0.57;56.14;100819.41;4856972;28;96742;-75
2021/03/09 00:26:58;;;;;;;121.90;49.63;;;;;;;0.56;56.17;100822.00;4849491;28;97000;-75
2021/03/09 00:29:23;;;;;;;122.00;48.27;;;;;;;0.63;56.03;100819.50;4858740;28;101328;-76
2021/03/09 00:31:49;;;;;;;113.27;46.63;;;;;;;0.47;56.07;100812.38;4876233;28;97495;-76
2021/03/09 00:34:14;;;;;;;113.93;48.23;;;;;;;0.27;56.71;100818.97;4860142;28;97282;-82
2021/03/09 00:36:40;;;;;;;130.17;52.13;;;;;;;0.48;56.40;100816.69;4859957;28;96851;-76
2021/03/09 00:39:05;;;;;;;123.47;49.77;;;;;;;0.50;56.13;100811.56;4859744;28;97556;-76
2021/03/09 00:41:31;;;;;;;125.53;51.47;;;;;;;0.58;56.32;100807.34;4875475;28;100658;-77
2021/03/09 00:43:57;;;;;;;114.20;49.07;;;;;;;0.62;55.43;100812.59;4844246;28;96666;-76
2021/03/09 00:46:22;;;;;;;127.00;49.03;;;;;;;0.66;56.10;100816.09;4875251;28;96719;-76
2021/03/09 00:48:48;;;;;;;123.17;48.20;;;;;;;0.60;56.29;100821.16;4860568;28;97420;-75
2021/03/09 00:51:13;;;;;;;123.50;49.07;;;;;;;0.48;56.91;100815.84;4862202;28;101059;-80
2021/03/09 00:53:39;;;;;;;135.37;52.10;;;;;;;0.55;56.26;100815.06;4878592;28;96668;-76
2021/03/09 00:56:05;;;;;;;117.87;47.83;;;;;;;0.44;56.48;100808.03;4894975;28;96823;-76
2021/03/09 00:58:30;;;;;;;114.67;48.03;;;;;;;0.33;57.28;100808.72;4877588;28;101640;-76
2021/03/09 01:00:56;;;;;;;113.10;45.43;;;;;;;0.44;56.90;100802.88;4862252;28;101385;-75
2021/03/09 01:03:22;;;;;;;116.40;43.77;;;;;;;0.38;56.57;100799.34;4877718;28;96676;-76
2021/03/09 01:05:47;;;;;;;109.90;47.20;;;;;;;0.32;56.93;100792.38;4863167;28;96895;-76
2021/03/09 01:08:13;;;;;;;124.03;52.93;;;;;;;0.19;57.31;100793.88;4878186;28;100839;-80
2021/03/09 01:10:39;;;;;;;126.33;53.20;;;;;;;0.16;57.36;100792.97;4869032;28;101764;-75
2021/03/09 01:13:04;;;;;;;138.37;55.73;;;;;;;0.28;57.30;100793.16;4880247;28;97233;-76
2021/03/09 01:15:30;;;;;;;134.97;54.83;;;;;;;0.15;57.58;100788.66;4873890;28;96978;-75
2021/03/09 01:17:56;;;;;;;141.13;56.17;;;;;;;0.24;56.97;100793.94;4874902;28;97753;-75
2021/03/09 01:20:21;;;;;;;128.53;54.03;;;;;;;0.11;57.55;100795.44;4858032;28;101051;-75
2021/03/09 01:22:47;;;;;;;127.93;48.80;;;;;;;0.24;57.29;100795.69;4859607;28;97277;-75
2021/03/09 01:25:13;;;;;;;118.27;46.80;;;;;;;0.29;57.01;100789.75;4859410;28;97036;-75
2021/03/09 01:27:39;;;;;;;115.03;46.30;;;;;;;0.13;57.59;100792.91;4858224;28;101963;-75
2021/03/09 01:30:07;;;;;;;113.50;44.63;;;;;;;0.11;57.33;100789.44;4859045;28;101130;-75
2021/03/09 01:32:33;;;;;;;115.60;45.23;;;;;;;0.18;57.30;100793.88;4860071;28;96743;-75
2021/03/09 01:34:59;;;;;;;118.57;47.53;;;;;;;0.20;57.66;100786.97;4878772;28;96875;-76
2021/03/09 01:37:24;;;;;;;114.00;44.83;;;;;;;0.01;58.00;100788.41;4892665;28;97719;-75
2021/03/09 01:39:50;;;;;;;104.07;45.73;;;;;;;0.01;57.90;100779.81;4893511;28;97318;-75
2021/03/09 01:42:15;;;;;;;104.83;43.70;;;;;;;0.07;57.43;100778.19;4877710;28;97276;-81
2021/03/09 01:44:41;;;;;;;103.50;42.33;;;;;;;0.11;57.36;100779.97;4893873;28;97203;-75
2021/03/09 01:47:07;;;;;;;107.73;43.17;;;;;;;0.03;57.61;100778.09;4877674;28;100869;-75
2021/03/09 01:49:35;;;;;;;105.27;43.90;;;;;;;0.16;56.85;100769.72;4876653;28;101042;-75
2021/03/09 01:52:02;;;;;;;108.70;41.93;;;;;;;0.21;57.04;100775.84;4877862;28;97198;-78
2021/03/09 01:54:28;;;;;;;108.00;45.13;;;;;;;0.21;56.96;100771.53;4877519;28;96963;-76
2021/03/09 01:56:53;;;;;;;95.63;40.83;;;;;;;0.08;57.31;100764.44;4860084;28;101653;-75
2021/03/09 01:59:21;;;;;;;99.67;41.83;;;;;;;-0.05;57.23;100765.09;4841895;28;100810;-76
2021/03/09 02:01:47;;;;;;;97.47;40.80;;;;;;;-0.06;57.42;100758.19;4858264;28;97079;-75
2021/03/09 02:04:12;;;;;;;94.40;40.37;;;;;;;0.06;57.07;100760.97;4859124;28;97046;-76
2021/03/09 02:06:38;;;;;;;97.27;41.87;;;;;;;-0.03;57.34;100751.38;4842051;28;101172;-75
2021/03/09 02:09:05;;;;;;;96.00;40.47;;;;;;;-0.03;57.37;100755.63;4874351;28;97845;-75
2021/03/09 02:11:52;;;;;;;98.77;41.47;;;;;;;-0.02;57.64;100749.66;4874182;28;97306;-77
2021/03/09 02:14:31;;;;;;;89.40;38.50;;;;;;;-0.13;57.85;100746.03;4873129;28;99617;-79
2021/03/09 02:17:20;;;;;;;96.77;39.83;;;;;;;-0.06;57.72;100748.75;4858477;28;101540;-75
2021/03/09 02:20:14;;;;;;;91.50;40.73;;;;;;;-0.09;57.41;100738.38;4845300;28;101575;-75
2021/03/09 02:23:32;;;;;;;91.83;39.00;;;;;;;0.01;57.34;100749.69;4863706;28;96742;-75
2021/03/09 02:26:22;;;;;;;97.60;43.87;;;;;;;-0.09;57.53;100746.13;4843308;28;97087;-76
2021/03/09 02:28:53;;;;;;;95.93;41.27;;;;;;;0.02;57.13;100741.09;4873135;28;101839;-77
2021/03/09 02:31:18;;;;;;;87.23;38.03;;;;;;;-0.17;57.55;100741.69;4841989;28;101939;-80
2021/03/09 02:33:46;;;;;;;90.03;37.20;;;;;;;-0.15;57.96;100743.41;4868435;28;96779;-76
2021/03/09 02:36:14;;;;;;;91.20;39.90;;;;;;;-0.10;57.66;100741.78;4877526;28;96951;-75
2021/03/09 02:38:40;;;;;;;92.30;41.27;;;;;;;-0.08;57.76;100745.25;4881824;28;97983;-76
2021/03/09 02:41:05;;;;;;;90.37;39.90;;;;;;;0.01;57.06;100735.94;4873809;28;97972;-76
2021/03/09 02:43:31;;;;;;;96.77;41.83;;;;;;;0.00;57.12;100740.22;4842243;28;97241;-75
2021/03/09 02:45:58;;;;;;;95.37;38.70;;;;;;;-0.10;57.62;100743.50;4858655;28;96950;-76
2021/03/09 02:48:26;;;;;;;103.83;42.60;;;;;;;-0.32;57.92;100742.25;4857519;28;97950;-75
2021/03/09 02:50:56;;;;;;;98.57;43.53;;;;;;;-0.29;58.46;100742.31;4857619;28;98552;-75
2021/03/09 02:53:26;;;;;;;96.00;41.47;;;;;;;-0.22;58.47;100741.59;4856938;28;96768;-75
2021/03/09 02:55:52;;;;;;;91.60;41.27;;;;;;;-0.27;57.86;100738.91;4870733;28;97176;-76
2021/03/09 02:58:19;;;;;;;101.10;41.37;;;;;;;-0.23;58.05;100739.88;4857551;28;100969;-81
2021/03/09 03:00:45;;;;;;;93.97;39.20;;;;;;;-0.16;57.27;100733.06;4857204;28;101446;-75
2021/03/09 03:03:14;;;;;;;98.53;40.13;;;;;;;-0.29;57.96;100739.72;4842487;28;97177;-76
2021/03/09 03:05:40;;;;;;;153.73;55.53;;;;;;;-0.33;58.30;100738.81;4857600;28;97327;-76
2021/03/09 03:08:08;;;;;;;165.47;64.33;;;;;;;-0.27;58.21;100738.06;4842130;28;101670;-76
2021/03/09 03:10:35;;;;;;;139.33;53.80;;;;;;;-0.30;57.84;100733.72;4856943;28;101560;-76
2021/03/09 03:13:02;;;;;;;124.23;50.83;;;;;;;-0.31;57.76;100737.16;4855807;28;97003;-76
2021/03/09 03:15:28;;;;;;;130.03;52.73;;;;;;;-0.29;58.04;100740.63;4856631;28;96945;-76
2021/03/09 03:17:54;;;;;;;120.47;51.13;;;;;;;-0.46;58.60;100740.34;4854514;28;101606;-75
2021/03/09 03:20:22;;;;;;;116.47;46.80;;;;;;;-0.59;58.45;100738.38;4841305;28;101376;-82
2021/03/09 03:22:49;;;;;;;112.33;47.33;;;;;;;-0.53;58.40;100745.34;4846266;28;97488;-75
2021/03/09 03:25:14;;;;;;;103.97;43.37;;;;;;;-0.48;58.40;100739.44;4877039;28;97176;-75
2021/03/09 03:27:41;;;;;;;112.63;44.23;;;;;;;-0.48;58.14;100735.97;4860016;28;101244;-76
2021/03/09 03:30:12;;;;;;;122.03;50.43;;;;;;;-0.48;58.06;100736.84;4876283;28;101495;-76
2021/03/09 03:32:38;;;;;;;112.93;46.70;;;;;;;-0.58;58.72;100734.97;4892497;28;96798;-75
2021/03/09 03:35:07;;;;;;;110.40;43.17;;;;;;;-0.43;58.28;100738.66;4880556;28;96956;-75
2021/03/09 03:37:33;;;;;;;98.23;40.87;;;;;;;-0.60;59.08;100733.19;4863257;28;100821;-76
2021/03/09 03:39:59;;;;;;;102.50;42.93;;;;;;;-0.58;58.43;100734.97;4879049;28;102107;-75
2021/03/09 03:42:25;;;;;;;99.53;38.40;;;;;;;-0.50;58.29;100741.09;4878795;28;96803;-76
2021/03/09 03:44:50;;;;;;;91.47;40.03;;;;;;;-0.51;58.66;100741.94;4895255;28;97202;-75
2021/03/09 03:47:16;;;;;;;93.47;37.70;;;;;;;-0.55;58.23;100744.47;4848445;28;101534;-75
2021/03/09 03:49:41;;;;;;;85.57;37.40;;;;;;;-0.54;58.03;100744.47;4875483;28;97792;-75
2021/03/09 03:52:22;;;;;;;79.57;33.97;;;;;;;-0.56;58.18;100742.72;4861060;28;96740;-75
2021/03/09 03:55:02;;;;;;;82.40;35.40;;;;;;;-0.59;58.68;100743.53;4887865;28;96861;-74
2021/03/09 03:57:33;;;;;;;83.47;35.37;;;;;;;-0.59;58.05;100740.94;4862957;28;101341;-75
2021/03/09 04:00:01;;;;;;;90.13;33.83;;;;;;;-0.53;57.95;100740.19;4879287;28;99506;-75
2021/03/09 04:02:27;;;;;;;86.40;35.53;;;;;;;-0.57;58.10;100736.69;4863075;28;96832;-75
2021/03/09 04:04:54;;;;;;;77.13;33.40;;;;;;;-0.51;58.51;100739.38;4878392;28;96868;-75
2021/03/09 04:07:23;;;;;;;87.83;35.70;;;;;;;-0.63;58.38;100736.59;4843933;28;101427;-80
2021/03/09 04:09:51;;;;;;;86.70;36.10;;;;;;;-0.59;58.31;100732.34;4857302;28;101011;-75
2021/03/09 04:12:17;;;;;;;85.53;36.67;;;;;;;-0.69;58.64;100737.34;4841719;29;97349;-76
2021/03/09 04:14:43;;;;;;;91.63;35.43;;;;;;;-0.79;58.71;100732.84;4868568;28;97552;-75
2021/03/09 04:17:09;;;;;;;80.43;35.87;;;;;;;-0.66;58.95;100733.09;4852631;29;101036;-75
2021/03/09 04:19:36;;;;;;;91.47;34.87;;;;;;;-0.71;58.85;100733.84;4867357;28;101496;-75
2021/03/09 04:22:02;;;;;;;75.70;33.80;;;;;;;-0.78;59.40;100741.47;4863668;28;96780;-75
2021/03/09 04:24:28;;;;;;;83.57;34.67;;;;;;;-0.79;58.78;100731.97;4894540;28;96908;-75
2021/03/09 04:26:54;;;;;;;76.43;34.77;;;;;;;-0.71;58.60;100733.00;4875951;28;98050;-75
2021/03/09 04:29:20;;;;;;;79.37;33.77;;;;;;;-0.72;58.94;100733.84;4859373;28;101737;-80
2021/03/09 04:31:46;;;;;;;83.47;35.70;;;;;;;-0.75;58.89;100733.78;4843615;28;97158;-75
2021/03/09 04:34:12;;;;;;;85.57;33.83;;;;;;;-0.83;59.18;100737.94;4844057;28;96892;-75
2021/03/09 04:36:40;;;;;;;85.97;31.97;;;;;;;-0.71;58.69;100731.28;4853275;28;101489;-75
2021/03/09 04:39:06;;;;;;;83.57;34.40;;;;;;;-0.69;58.76;100731.31;4849425;28;99519;-79
2021/03/09 04:41:33;;;;;;;77.67;30.73;;;;;;;-0.65;59.01;100727.94;4843714;28;97168;-76
2021/03/09 04:44:00;;;;;;;75.93;32.73;;;;;;;-0.73;58.33;100721.78;4860071;28;96876;-75
2021/03/09 04:46:25;;;;;;;76.20;31.70;;;;;;;-0.76;58.39;100726.88;4858280;28;101473;-75
2021/03/09 04:48:51;;;;;;;78.37;32.60;;;;;;;-0.86;58.95;100725.84;4859890;28;97855;-75
2021/03/09 04:51:18;;;;;;;84.10;32.60;;;;;;;-0.86;58.49;100725.84;4860119;28;97058;-75
2021/03/09 04:53:45;;;;;;;82.07;33.40;;;;;;;-0.86;58.75;100728.41;4859192;28;96964;-76
2021/03/09 04:56:11;;;;;;;74.17;32.00;;;;;;;-0.80;58.48;100727.66;4866183;28;97413;-75
2021/03/09 04:58:37;;;;;;;83.47;33.87;;;;;;;-0.82;59.05;100726.75;4877243;28;100701;-77
2021/03/09 05:01:03;;;;;;;86.10;33.50;;;;;;;-0.88;59.37;100731.81;4872521;28;96720;-75
2021/03/09 05:03:28;;;;;;;82.27;33.53;;;;;;;-0.88;59.02;100727.50;4859327;28;96910;-76
2021/03/09 05:05:54;;;;;;;79.73;33.80;;;;;;;-0.85;58.89;100742.19;4843808;28;100981;-75
2021/03/09 05:08:21;;;;;;;83.33;36.83;;;;;;;-0.83;59.11;100737.94;4859523;28;97474;-76
2021/03/09 05:10:46;;;;;;;78.73;34.17;;;;;;;-0.88;59.11;100742.13;4858936;28;96703;-75
2021/03/09 05:13:14;;;;;;;89.67;34.47;;;;;;;-0.79;59.18;100739.72;4848357;28;96907;-75
2021/03/09 05:15:40;;;;;;;88.73;34.87;;;;;;;-0.86;58.82;100735.28;4873991;28;98144;-75
2021/03/09 05:18:05;;;;;;;88.67;34.70;;;;;;;-0.88;59.33;100745.56;4874788;28;100816;-75
2021/03/09 05:20:31;;;;;;;85.20;35.30;;;;;;;-0.99;59.66;100747.06;4857871;28;97238;-76
2021/03/09 05:22:57;;;;;;;76.33;33.13;;;;;;;-0.91;58.99;100750.66;4859488;28;97214;-74
2021/03/09 05:25:22;;;;;;;87.17;34.43;;;;;;;-0.94;59.58;100743.72;4858440;28;101606;-80
2021/03/09 05:27:48;;;;;;;91.27;33.87;;;;;;;-0.91;59.51;100742.94;4858525;28;101362;-75
2021/03/09 05:30:16;;;;;;;88.43;34.13;;;;;;;-0.94;59.84;100754.03;4859235;28;97095;-75
2021/03/09 05:32:43;;;;;;;92.50;35.60;;;;;;;-0.84;59.35;100749.94;4857676;28;97403;-75
2021/03/09 05:35:09;;;;;;;89.43;34.53;;;;;;;-0.75;58.99;100744.97;4877949;28;101474;-76
2021/03/09 05:37:34;;;;;;;86.00;33.83;;;;;;;-0.72;58.95;100747.59;4893578;28;98038;-75
2021/03/09 05:40:00;;;;;;;94.13;37.00;;;;;;;-0.73;59.30;100751.03;4877823;28;97013;-76
2021/03/09 05:42:26;;;;;;;82.43;34.70;;;;;;;-0.69;59.04;100746.78;4877454;28;97511;-79
2021/03/09 05:44:52;;;;;;;90.53;36.23;;;;;;;-0.62;58.50;100747.75;4893392;28;97381;-75
2021/03/09 05:47:17;;;;;;;83.90;35.73;;;;;;;-0.59;58.62;100750.41;4875667;28;101338;-76
2021/03/09 05:49:47;;;;;;;95.83;36.87;;;;;;;-0.53;58.84;100743.63;4858078;28;96770;-75
2021/03/09 05:52:15;;;;;;;87.73;36.30;;;;;;;-0.52;59.21;100745.38;4843451;28;96928;-75
2021/03/09 05:54:41;;;;;;;85.07;36.13;;;;;;;-0.50;58.77;100741.09;4858120;28;101049;-75
2021/03/09 05:57:06;;;;;;;82.60;36.67;;;;;;;-0.48;59.30;100744.59;4858620;28;97849;-76
2021/03/09 05:59:33;;;;;;;95.40;37.23;;;;;;;-0.43;59.14;100741.25;4858350;28;96753;-75
2021/03/09 06:01:58;;;;;;;88.80;36.37;;;;;;;-0.38;59.03;100750.75;4875314;28;96913;-74
2021/03/09 06:04:24;;;;;;;80.33;36.50;;;;;;;-0.34;58.52;100744.84;4842626;28;101425;-80
2021/03/09 06:06:50;;;;;;;90.83;37.37;;;;;;;-0.36;58.92;100743.06;4858414;28;97834;-75
2021/03/09 06:09:34;;;;;;;82.80;36.70;;;;;;;0.02;57.99;100737.66;4842434;28;97232;-75
2021/03/09 06:12:07;;;;;;;86.63;35.83;;;;;;;0.42;57.28;100737.41;4858633;28;97143;-75
2021/03/09 06:14:33;;;;;;;85.00;35.53;;;;;;;0.74;56.47;100742.13;4856869;28;101206;-79
2021/03/09 06:16:59;;;;;;;84.90;36.00;;;;;;;0.99;55.95;100743.31;4858277;28;102695;-75
2021/03/09 06:19:46;;;;;;;84.07;36.53;;;;;;;1.26;55.45;100749.63;4842310;28;97255;-81
2021/03/09 06:22:13;;;;;;;86.00;37.73;;;;;;;1.63;54.69;100745.69;4858676;28;96788;-76
2021/03/09 06:24:39;;;;;;;83.80;36.13;;;;;;;1.83;53.90;100753.59;4841818;28;101160;-75
2021/03/09 06:27:25;;;;;;;95.53;40.00;;;;;;;2.12;53.10;100756.44;4858732;28;97348;-75
2021/03/09 06:29:51;;;;;;;94.33;38.90;;;;;;;2.34;52.83;100751.41;4874701;28;97338;-75
2021/03/09 06:32:17;;;;;;;99.53;39.80;;;;;;;2.91;51.55;100760.38;4859330;28;96900;-75
2021/03/09 06:34:42;;;;;;;98.80;40.47;;;;;;;3.39;50.58;100759.63;4857924;28;100552;-76
2021/03/09 06:37:22;;;;;;;91.07;40.03;;;;;;;3.81;49.43;100751.91;4858210;28;100992;-76
2021/03/09 06:39:58;;;;;;;90.20;40.00;;;;;;;4.27;49.01;100750.16;4857276;28;96796;-75
2021/03/09 06:42:32;;;;;;;87.63;40.37;;;;;;;4.82;48.07;100748.28;4874351;28;97874;-76
2021/03/09 06:45:09;;;;;;;84.00;40.17;;;;;;;5.14;46.88;100748.16;4884631;28;97429;-77
2021/03/09 06:47:49;;;;;;;90.87;41.70;;;;;;;5.19;46.56;100762.00;4876216;28;101344;-76
2021/03/09 06:50:34;;;;;;;81.50;41.10;;;;;;;5.49;46.00;100750.53;4865536;28;97150;-77
2021/03/09 06:53:02;;;;;;;95.70;41.83;;;;;;;5.15;46.01;100761.16;4857970;28;97098;-76
2021/03/09 06:55:33;;;;;;;87.13;40.33;;;;;;;5.24;46.28;100759.41;4844824;28;100559;-79
2021/03/09 06:58:09;;;;;;;91.00;41.60;;;;;;;5.56;45.40;100756.59;4845552;28;101581;-75
2021/03/09 07:00:35;;;;;;;89.00;41.87;;;;;;;5.88;44.67;100764.19;4857705;28;97119;-76
2021/03/09 07:03:00;;;;;;;88.30;43.03;;;;;;;6.74;43.45;100763.38;4840712;28;97940;-76
2021/03/09 07:05:26;;;;;;;93.87;43.40;;;;;;;6.93;42.72;100759.69;4856258;28;97447;-81
2021/03/09 07:07:52;;;;;;;84.87;42.63;;;;;;;7.76;41.99;100760.28;4842359;28;101418;-74
2021/03/09 07:10:19;;;;;;;89.53;41.00;;;;;;;8.66;40.32;100752.66;4844616;28;96982;-74
2021/03/09 07:12:48;;;;;;;81.93;41.13;;;;;;;10.37;37.20;100755.81;4869684;28;96952;-74
2021/03/09 07:15:16;;;;;;;80.97;39.08;;;;;;;11.67;35.02;100756.44;4861396;28;98073;-74
2021/03/09 07:17:42;;;;;;;95.07;41.20;;;;;;;12.53;33.64;100746.53;4872306;28;101295;-74
2021/03/09 07:20:13;;;;;;;77.63;38.95;;;;;;;12.71;33.18;100744.16;4879883;28;97268;-75
2021/03/09 07:22:39;;;;;;;97.75;50.85;;;;;;;13.52;32.02;100749.03;4863843;28;96735;-73
2021/03/09 07:25:18;;;;;;;76.97;37.85;;;;;;;14.47;29.74;100753.91;4863376;28;101204;-74
2021/03/09 07:27:50;;;;;;;74.68;37.15;;;;;;;14.52;29.40;100747.59;4858661;28;101069;-79
2021/03/09 07:30:16;;;;;;;;;;;;;;;13.99;29.95;100754.19;4853064;28;97169;-75
2021/03/09 07:32:44;;;;;;;67.38;29.25;;;;;;;14.32;30.22;100746.63;4874091;28;97889;-75
2021/03/09 07:35:11;;;;;;;54.65;27.98;;;;;;;14.97;29.06;100744.69;4868648;28;101457;-75
2021/03/09 07:37:39;;;;;;;54.35;27.75;;;;;;;15.57;28.92;100742.75;4858408;28;99534;-77
2021/03/09 07:40:09;;;;;;;53.65;28.00;;;;;;;16.14;28.03;100747.91;4858501;28;97245;-75
2021/03/09 07:42:35;;;;;;;59.72;30.65;;;;;;;16.88;26.66;100739.69;4873602;28;97070;-79
2021/03/09 07:45:02;;;;;;;53.78;28.20;;;;;;;17.76;26.19;100748.13;4851173;28;102494;-79
2021/03/09 07:47:29;;;;;;;46.25;25.60;;;;;;;18.03;25.49;100740.38;4867133;28;97719;-76
2021/03/09 07:49:56;;;;;;;55.08;29.10;;;;;;;18.27;25.71;100740.75;4857567;28;97341;-79
2021/03/09 07:52:25;;;;;;;47.75;23.85;;;;;;;17.73;25.51;100741.19;4864862;28;96939;-80
2021/03/09 07:55:03;;;;;;;42.85;22.58;;;;;;;18.05;25.18;100738.50;4846724;28;101490;-78
2021/03/09 07:57:30;;;;;;;48.65;22.33;;;;;;;18.43;25.08;100736.22;4874295;28;98326;-79
2021/03/09 08:00:01;;;;;;;41.78;21.55;;;;;;;18.69;24.25;100726.66;4842474;28;97255;-81
2021/03/09 08:02:58;;;;;;;35.67;19.40;;;;;;;18.64;24.12;100730.53;4891582;28;96937;-79
2021/03/09 08:05:26;;;;;;;45.47;20.33;;;;;;;18.39;24.14;100726.72;4892981;28;98142;-75
2021/03/09 08:07:51;;;;;;;39.35;21.05;;;;;;;18.84;24.12;100726.69;4877194;28;101075;-75
2021/03/09 08:10:29;;;;;;;35.63;18.63;;;;;;;19.16;23.62;100725.50;4887857;28;96840;-77
2021/03/09 08:13:07;;;;;;;38.20;20.80;;;;;;;19.68;23.24;100721.34;4874384;28;97107;-77
2021/03/09 08:15:36;;;;;;;41.15;20.30;;;;;;;20.49;22.74;100715.00;4873046;28;98195;-76
2021/03/09 08:18:28;;;;;;;39.88;22.45;;;;;;;20.99;22.05;100715.94;4873435;28;98092;-78
2021/03/09 08:20:55;;;;;;;30.70;18.17;;;;;;;20.97;21.89;100718.75;4861813;28;96838;-77
2021/03/09 08:23:33;;;;;;;38.10;17.90;;;;;;;20.38;21.95;100715.72;4872751;28;97316;-77
2021/03/09 08:26:07;;;;;;;31.42;17.42;;;;;;;20.30;22.07;100713.63;4861845;28;98012;-74
2021/03/09 08:28:34;;;;;;;30.85;17.33;;;;;;;20.80;21.89;100708.41;4853079;28;101709;-75
2021/03/09 08:31:12;;;;;;;39.40;19.55;;;;;;;20.89;22.11;100710.44;4871966;28;97641;-75
2021/03/09 08:33:54;;;;;;;34.72;17.85;;;;;;;20.65;21.85;100712.13;4869225;28;97331;-75
2021/03/09 08:36:23;;;;;;;34.60;19.63;;;;;;;20.59;21.98;100710.75;4866666;28;98654;-74
2021/03/09 08:39:04;;;;;;;32.70;18.17;;;;;;;20.43;22.24;100716.28;4848564;28;100289;-74
2021/03/09 08:41:36;;;;;;;31.20;17.20;;;;;;;20.31;22.18;100715.31;4856352;28;96846;-75
2021/03/09 08:44:20;;;;;;;35.10;16.95;;;;;;;20.10;22.40;100714.97;4857728;28;96975;-75
2021/03/09 08:47:07;;;;;;;31.58;17.58;;;;;;;19.63;22.49;100716.28;4862695;28;99367;-75
2021/03/09 08:49:36;;;;;;;32.33;16.63;;;;;;;19.52;22.54;100705.50;4844182;28;100241;-75
2021/03/09 08:52:14;;;;;;;47.17;26.55;;;;;;;19.04;23.17;100707.66;4848778;28;96845;-76
2021/03/09 08:54:43;;;;;;;39.58;18.75;;;;;;;18.24;24.01;100706.41;4864275;28;97464;-75
2021/03/09 08:57:23;;;;;;;34.38;15.50;;;;;;;17.02;25.06;100708.94;4865102;28;98604;-76
2021/03/09 09:00:01;;;;;;;30.70;14.57;;;;;;;16.75;25.37;100704.13;4841071;28;101387;-74
2021/03/09 09:02:27;;;;;;;28.73;15.65;;;;;;;16.03;25.52;100708.75;4867059;28;96824;-74
2021/03/09 09:04:58;;;;;;;29.60;14.68;;;;;;;15.68;25.82;100705.22;4852935;28;96898;-75
2021/03/09 09:07:43;;;;;;;23.52;12.77;;;;;;;15.28;25.99;100708.91;4847740;29;101083;-75
2021/03/09 09:10:14;;;;;;;26.85;16.67;;;;;;;14.78;27.11;100709.47;4862354;28;97893;-75
2021/03/09 09:12:41;;;;;;;27.35;14.88;;;;;;;13.90;27.81;100709.69;4872356;28;97362;-75
2021/03/09 09:15:25;;;;;;;28.80;14.10;;;;;;;13.99;27.87;100714.59;4856305;28;97294;-75
2021/03/09 09:17:56;;;;;;;23.88;13.43;;;;;;;14.13;27.73;100704.31;4855631;28;99705;-75
2021/03/09 09:20:38;;;;;;;23.50;13.67;;;;;;;13.56;27.35;100703.19;4856373;28;99466;-74
2021/03/09 09:23:26;;;;;;;25.15;13.27;;;;;;;13.35;28.06;100696.97;4842009;28;97281;-76
2021/03/09 09:25:53;;;;;;;22.02;12.73;;;;;;;13.33;27.89;100699.66;4846536;28;96939;-76
2021/03/09 09:28:28;;;;;;;21.60;11.70;;;;;;;13.17;28.04;100695.03;4853781;28;101699;-76
2021/03/09 09:30:55;;;;;;;21.00;11.10;;;;;;;12.98;29.00;100687.84;4877971;28;97577;-74
2021/03/09 09:33:22;;;;;;;23.45;10.52;;;;;;;13.49;28.09;100689.34;4848699;28;97867;-75
2021/03/09 09:35:48;;;;;;;18.98;9.38;;;;;;;13.09;27.91;100695.34;4850759;28;97026;-75
2021/03/09 09:38:16;;;;;;;19.20;9.77;;;;;;;12.61;28.30;100693.59;4839983;28;101599;-77
2021/03/09 09:40:54;;;;;;;19.98;9.07;;;;;;;12.36;28.03;100683.09;4887558;28;98161;-76
2021/03/09 09:43:21;;;;;;;17.40;8.90;;;;;;;11.89;28.65;100688.22;4853803;28;96828;-75
2021/03/09 09:45:56;;;;;;;17.92;9.90;;;;;;;12.02;29.01;100693.97;4865013;28;98516;-76
2021/03/09 09:48:29;;;;;;;17.08;8.70;;;;;;;11.76;28.43;100688.63;4836962;29;101630;-75
2021/03/09 09:50:58;;;;;;;17.25;9.52;;;;;;;12.05;28.29;100691.22;4864828;28;97310;-76
2021/03/09 09:53:30;;;;;;;16.00;8.40;;;;;;;11.84;28.61;100690.13;4853851;28;97384;-75
2021/03/09 09:55:55;;;;;;;;;;;;;;;11.54;28.91;100688.44;4855981;28;96910;-78
2021/03/09 09:58:22;;;;;;;19.48;8.13;;;;;;;11.79;28.88;100698.19;4868076;28;98241;-75
2021/03/09 10:00:55;;;;;;;16.95;8.88;;;;;;;11.52;28.55;100697.31;4861138;28;101108;-76
2021/03/09 10:03:20;;;;;;;18.80;8.20;;;;;;;11.62;29.14;100693.47;4852044;28;97686;-75
2021/03/09 10:05:46;;;;;;;16.67;9.02;;;;;;;11.44;29.44;100692.28;4853373;28;97330;-75
2021/03/09 10:08:13;;;;;;;17.35;9.25;;;;;;;11.62;29.68;100690.84;4848776;28;101656;-75
2021/03/09 10:10:40;;;;;;;19.98;9.35;;;;;;;11.42;30.20;100691.47;4839919;28;101335;-79
2021/03/09 10:13:20;;;;;;;16.27;9.02;;;;;;;11.26;29.91;100692.88;4854738;28;97340;-77
2021/03/09 10:15:46;;;;;;;14.85;7.55;;;;;;;11.26;30.87;100690.25;4867468;28;97787;-76
2021/03/09 10:18:16;;;;;;;16.13;7.68;;;;;;;10.95;30.58;100685.91;4830604;28;101880;-76
2021/03/09 10:20:42;;;;;;;15.55;7.13;;;;;;;11.09;29.57;100688.97;4846864;28;99498;-76
2021/03/09 10:23:08;;;;;;;12.65;6.07;;;;;;;11.43;29.58;100690.56;4846660;28;97882;-76
2021/03/09 10:25:38;;;;;;;11.60;6.78;;;;;;;11.50;29.16;100684.19;4855662;28;96838;-77
2021/03/09 10:28:04;;;;;;;10.98;6.32;;;;;;;11.19;29.36;100680.81;4855407;28;101841;-76
2021/03/09 10:30:37;;;;;;;33.05;14.10;;;;;;;11.23;29.41;100685.94;4866721;28;97429;-77
2021/03/09 10:33:11;;;;;;;15.55;7.25;;;;;;;11.25;28.92;100686.72;4859402;28;98144;-76
2021/03/09 10:36:03;;;;;;;13.30;4.80;;;;;;;11.02;28.85;100676.91;4852034;28;97698;-77
2021/03/09 10:38:29;;;;;;;;;;;;;;;10.48;28.11;100689.91;4833428;28;101237;-75
2021/03/09 10:40:55;;;;;;;8.23;4.18;;;;;;;9.61;28.54;100682.50;4859008;28;98173;-78
2021/03/09 10:43:46;;;;;;;10.55;5.70;;;;;;;9.75;28.50;100680.41;4872840;28;96767;-80
2021/03/09 10:46:12;;;;;;;17.33;7.72;;;;;;;9.60;28.81;100686.91;4860899;28;97039;-76
2021/03/09 10:48:39;;;;;;;11.68;6.60;;;;;;;9.79;28.72;100684.66;4866571;28;97755;-80
2021/03/09 10:51:19;;;;;;;8.52;4.50;;;;;;;9.87;28.13;100682.72;4858137;29;101210;-76
2021/03/09 10:53:45;;;;;;;6.32;3.72;;;;;;;10.00;28.86;100682.41;4873147;28;97151;-76
2021/03/09 10:56:11;;;;;;;9.57;3.40;;;;;;;9.94;28.53;100683.41;4858065;28;97121;-76
2021/03/09 10:58:36;;;;;;;7.25;3.45;;;;;;;9.81;28.78;100684.66;4855368;28;101304;-78
2021/03/09 11:01:03;;;;;;;8.15;4.38;;;;;;;9.96;28.44;100681.63;4854267;28;100878;-76
2021/03/09 11:03:28;;;;;;;9.55;5.40;;;;;;;9.62;29.30;100679.84;4845194;28;97148;-76
2021/03/09 11:05:54;;;;;;;11.70;5.10;;;;;;;9.63;29.13;100678.06;4856437;28;97541;-79
2021/03/09 11:08:22;;;;;;;11.20;4.35;;;;;;;9.39;29.59;100667.28;4860071;28;98046;-77
2021/03/09 11:10:47;;;;;;;9.07;4.65;;;;;;;8.93;30.07;100673.59;4869717;28;99442;-77
2021/03/09 11:13:16;;;;;;;6.65;4.10;;;;;;;8.70;30.86;100671.44;4874761;28;97317;-76
2021/03/09 11:15:41;;;;;;;12.05;5.13;;;;;;;8.77;30.99;100674.78;4857318;28;97512;-76
2021/03/09 11:18:07;;;;;;;12.93;4.25;;;;;;;8.97;30.37;100664.75;4859535;28;101355;-77